Tucson, AZ (85734)

5:14 PM MST on July 27, 2017 (GMT -0700)
UA WRRC WEATHER | | Change Station

Elev 2431 ft 32.23 °N, 110.94 °W | Updated 14 minutes ago

Clear
Clear
101.1 °F
Feels Like 100 °F
N
7.0
Wind Variable Wind from West
Gusts 8.0 mph

Today
High -- | Low -- °F
--% Chance of Precip.
Yesterday
High -- | Low -- °F
Precip. -- in
Pressure 29.74 in
Visibility 10.0 miles
Clouds Mostly Cloudy 18000 ft
Heat Index 100 °F
Dew Point 57 °F
Humidity 23%
Rainfall 0.00 in
Snow Depth Not available.
5:35 AM 7:24 PM
Waxing Crescent, 25% visible
METAR KDMA 272358Z AUTO 25004KT 10SM BKN180 38/14 A2989 RMK AO2 SLP071 T03830135 10401 20337 57018 $
Pressure 29.74 in
Visibility 10.0 miles
Clouds Mostly Cloudy 18000 ft
Heat Index 100 °F
Dew Point 57 °F
Humidity 23%
Rainfall 0.00 in
Snow Depth Not available.
5:35 AM 7:24 PM
Waxing Crescent, 25% visible
METAR KDMA 272358Z AUTO 25004KT 10SM BKN180 38/14 A2989 RMK AO2 SLP071 T03830135 10401 20337 57018 $

Get Severe Weather Alerts

Thanks for signing up!

Be on the lookout for a verification email in your inbox.

You'll start receiving the daily forecast at 6 AM.

×

10-Day Weather Forecast

Almanac

Astronomy

Jul. 27, 2017 Rise Set
Actual Time
Civil Twilight
Nautical Twilight
Astronomical Twilight
Moon
Length of Visible Light
Length of Day
Tomorrow will be .
, % of the Moon is Illuminated

Today's Extremes

State Highs State Lows

Community

WunderPhotos

Category 6

Welcome to Category 6. This is the collective home for Weather Underground's featured writeups by Dr. Jeff Masters (right), Bob Henson (left), Chris Burt, and other regular contributors.

Nearby

Air Quality

  Air Quality AQ Index Pollutant
Not available.

Snow Depth

Station Depth Elevation

Earthquake Activity

City Distance Mag. Time & Date
Minimum magnitude displayed is 2.5.

Coastal Water Temperatures

Place Temperature

Stations

Nearby Weather Stations

Station Location Temp. Windchill Dew Point Humidity Wind Precip. Elev Updated Type
                   

Watches & Warnings

There are currently no watches in effect.